createdAt,value
2023-03-07T00:01:38.971Z,11.95
2023-03-07T00:04:05.715Z,14.93
2023-03-07T00:06:32.458Z,14.57
2023-03-07T00:09:00.479Z,14.75
2023-03-07T00:11:27.608Z,15.60
2023-03-07T00:13:54.727Z,15.93
2023-03-07T00:16:22.798Z,13.55
2023-03-07T00:18:49.844Z,15.63
2023-03-07T00:21:21.362Z,13.95
2023-03-07T00:23:48.388Z,13.63
2023-03-07T00:26:20.570Z,13.77
2023-03-07T00:28:48.674Z,13.03
2023-03-07T00:31:15.615Z,13.18
2023-03-07T00:33:42.573Z,13.95
2023-03-07T00:36:15.406Z,14.02
2023-03-07T00:38:42.450Z,15.60
2023-03-07T00:41:11.843Z,15.50
2023-03-07T00:43:38.680Z,14.18
2023-03-07T00:46:05.809Z,12.18
2023-03-07T00:48:37.704Z,16.25
2023-03-07T00:51:05.379Z,11.38
2023-03-07T00:53:32.157Z,14.25
2023-03-07T00:56:01.469Z,13.38
2023-03-07T00:58:29.653Z,17.02
2023-03-07T01:00:56.668Z,13.27
2023-03-07T01:03:23.880Z,15.20
2023-03-07T01:05:51.266Z,14.90
2023-03-07T01:08:18.574Z,13.27
2023-03-07T01:10:45.917Z,16.25
2023-03-07T01:13:12.895Z,17.88
2023-03-07T01:15:39.677Z,11.95
2023-03-07T01:18:07.193Z,14.85
2023-03-07T01:20:35.180Z,15.30
2023-03-07T01:23:02.014Z,15.85
2023-03-07T01:25:28.935Z,13.93
2023-03-07T01:27:56.179Z,11.10
2023-03-07T01:30:24.326Z,12.77
2023-03-07T01:32:58.187Z,13.98
2023-03-07T01:35:25.279Z,12.25
2023-03-07T01:37:52.650Z,13.02
2023-03-07T01:40:20.486Z,12.82
2023-03-07T01:42:47.267Z,11.63
2023-03-07T01:45:13.945Z,11.13
2023-03-07T01:47:41.705Z,12.98
2023-03-07T01:50:11.819Z,14.93
2023-03-07T01:52:40.520Z,13.35
2023-03-07T01:55:14.142Z,12.73
2023-03-07T01:57:41.108Z,12.27
2023-03-07T02:00:12.013Z,11.95
2023-03-07T02:02:39.847Z,15.90
2023-03-07T02:05:25.464Z,13.68
2023-03-07T02:07:52.275Z,11.77
2023-03-07T02:10:20.648Z,13.02
2023-03-07T02:12:47.370Z,12.45
2023-03-07T02:15:14.928Z,11.75
2023-03-07T02:17:42.361Z,11.95
2023-03-07T02:20:13.480Z,13.90
2023-03-07T02:22:41.108Z,12.05
2023-03-07T02:25:21.926Z,12.80
2023-03-07T02:27:49.107Z,12.68
2023-03-07T02:30:15.875Z,13.23
2023-03-07T02:32:42.654Z,11.77
2023-03-07T02:35:20.665Z,13.07
2023-03-07T02:37:49.035Z,12.82
2023-03-07T02:40:17.088Z,11.15
2023-03-07T02:42:43.927Z,11.50
2023-03-07T02:45:13.729Z,11.00
2023-03-07T02:47:42.078Z,11.98
2023-03-07T02:50:09.714Z,12.85
2023-03-07T02:52:36.581Z,15.88
2023-03-07T02:55:03.813Z,13.10
2023-03-07T02:57:30.572Z,14.23
2023-03-07T02:59:57.676Z,12.30
2023-03-07T03:02:24.377Z,11.80
2023-03-07T03:04:51.150Z,12.70
2023-03-07T03:07:17.997Z,10.50
2023-03-07T03:09:44.751Z,13.18
2023-03-07T03:12:11.461Z,10.82
2023-03-07T03:14:38.210Z,13.25
2023-03-07T03:17:04.948Z,12.52
2023-03-07T03:19:31.756Z,12.57
2023-03-07T03:21:59.064Z,12.38
2023-03-07T03:24:25.794Z,12.07
2023-03-07T03:26:55.264Z,10.75
2023-03-07T03:29:21.995Z,11.77
2023-03-07T03:31:48.939Z,10.68
2023-03-07T03:34:15.639Z,13.10
2023-03-07T03:36:42.385Z,15.48
2023-03-07T03:39:11.191Z,12.00
2023-03-07T03:41:38.177Z,12.50
2023-03-07T03:44:04.850Z,13.10
2023-03-07T03:46:31.627Z,11.38
2023-03-07T03:48:58.324Z,10.63
2023-03-07T03:51:25.103Z,11.50
2023-03-07T03:53:52.091Z,15.40
2023-03-07T03:56:21.470Z,13.00
2023-03-07T03:58:49.052Z,11.63
2023-03-07T04:01:15.926Z,13.10
2023-03-07T04:03:45.128Z,13.20
2023-03-07T04:06:14.231Z,12.98
2023-03-07T04:08:41.568Z,11.73
2023-03-07T04:11:08.375Z,14.00
2023-03-07T04:13:35.783Z,14.15
2023-03-07T04:16:06.936Z,13.50
2023-03-07T04:18:34.459Z,12.27
2023-03-07T04:21:01.568Z,14.73
2023-03-07T04:23:28.758Z,12.45
2023-03-07T04:25:57.401Z,12.45
2023-03-07T04:28:41.464Z,13.43
2023-03-07T04:31:08.150Z,13.48
2023-03-07T04:33:34.829Z,13.00
2023-03-07T04:36:01.595Z,14.07
2023-03-07T04:38:28.366Z,12.95
2023-03-07T04:40:55.118Z,13.27
2023-03-07T04:43:21.969Z,14.70
2023-03-07T04:45:48.739Z,12.45
2023-03-07T04:48:15.499Z,14.30
2023-03-07T04:50:42.234Z,14.00
2023-03-07T04:53:08.949Z,12.77
2023-03-07T04:55:35.683Z,13.98
2023-03-07T04:58:02.359Z,16.58
2023-03-07T05:00:29.169Z,13.77
2023-03-07T05:02:58.991Z,12.77
2023-03-07T05:05:25.706Z,13.98
2023-03-07T05:07:52.457Z,16.60
2023-03-07T05:10:19.294Z,14.75
2023-03-07T05:12:45.965Z,14.57
2023-03-07T05:15:12.709Z,16.63
2023-03-07T05:17:39.426Z,14.70
2023-03-07T05:20:07.194Z,13.85
2023-03-07T05:22:34.268Z,15.75
2023-03-07T05:25:01.038Z,16.08
2023-03-07T05:27:27.821Z,14.88
2023-03-07T05:29:54.563Z,14.32
2023-03-07T05:32:21.295Z,13.60
2023-03-07T05:34:48.396Z,12.48
2023-03-07T05:37:15.102Z,14.43
2023-03-07T05:39:41.880Z,14.80
2023-03-07T05:42:08.558Z,16.63
2023-03-07T05:44:35.390Z,16.60
2023-03-07T05:47:03.275Z,15.60
2023-03-07T05:49:29.977Z,14.98
2023-03-07T05:51:56.761Z,13.63
2023-03-07T05:54:23.605Z,13.82
2023-03-07T05:56:50.413Z,12.27
2023-03-07T05:59:17.271Z,13.27
2023-03-07T06:01:44.020Z,13.95
2023-03-07T06:04:10.927Z,13.55
2023-03-07T06:06:37.708Z,18.02
2023-03-07T06:09:05.864Z,14.07
2023-03-07T06:11:33.374Z,13.75
2023-03-07T06:14:00.266Z,14.68
2023-03-07T06:16:27.339Z,14.32
2023-03-07T06:18:54.172Z,15.75
2023-03-07T06:21:20.915Z,12.52
2023-03-07T06:23:47.678Z,13.38
2023-03-07T06:26:15.232Z,12.38
2023-03-07T06:28:42.698Z,14.45
2023-03-07T06:31:15.388Z,11.20
2023-03-07T06:33:43.074Z,14.00
2023-03-07T06:36:12.249Z,13.73
2023-03-07T06:38:39.637Z,13.82
2023-03-07T06:41:06.756Z,13.77
2023-03-07T06:43:33.747Z,11.60
2023-03-07T06:46:01.074Z,13.48
2023-03-07T06:48:27.811Z,11.98
2023-03-07T06:50:54.593Z,11.48
2023-03-07T06:53:21.442Z,10.77
2023-03-07T06:55:49.922Z,15.13
2023-03-07T06:58:16.814Z,15.25
2023-03-07T07:00:43.603Z,12.63
2023-03-07T07:03:16.435Z,13.75
2023-03-07T07:05:43.256Z,12.90
2023-03-07T07:08:10.091Z,13.27
2023-03-07T07:10:37.070Z,14.02
2023-03-07T07:13:04.695Z,11.18
2023-03-07T07:15:32.179Z,13.02
2023-03-07T07:17:59.138Z,11.63
2023-03-07T07:20:25.928Z,15.77
2023-03-07T07:22:52.712Z,14.63
2023-03-07T07:25:19.431Z,10.70
2023-03-07T07:27:46.184Z,11.07
2023-03-07T07:30:14.032Z,13.98
2023-03-07T07:32:40.929Z,14.00
2023-03-07T07:35:08.351Z,11.95
2023-03-07T07:37:35.083Z,12.88
2023-03-07T07:40:01.803Z,11.88
2023-03-07T07:42:30.203Z,10.27
2023-03-07T07:44:59.128Z,13.50
2023-03-07T07:47:28.914Z,11.30
2023-03-07T07:49:56.709Z,10.60
2023-03-07T07:52:25.492Z,12.13
2023-03-07T07:54:52.261Z,12.02
2023-03-07T07:57:23.972Z,12.82
2023-03-07T08:00:11.462Z,10.23
2023-03-07T08:02:38.494Z,14.85
2023-03-07T08:05:10.455Z,11.00
2023-03-07T08:07:37.348Z,11.70
2023-03-07T08:10:18.531Z,11.90
2023-03-07T08:12:48.118Z,13.05
2023-03-07T08:15:17.220Z,12.38
2023-03-07T08:17:44.655Z,9.60
2023-03-07T08:20:11.682Z,12.07
2023-03-07T08:22:38.860Z,10.20
2023-03-07T08:25:06.858Z,11.13
2023-03-07T08:27:33.952Z,12.38
2023-03-07T08:30:01.486Z,12.25
2023-03-07T08:32:28.536Z,9.45
2023-03-07T08:34:55.305Z,10.52
2023-03-07T08:37:24.203Z,10.48
2023-03-07T08:39:51.166Z,12.73
2023-03-07T08:42:24.153Z,9.20
2023-03-07T08:44:50.932Z,11.40
2023-03-07T08:47:17.791Z,11.95
2023-03-07T08:49:44.624Z,10.98
2023-03-07T08:52:11.696Z,9.88
2023-03-07T08:54:38.822Z,12.60
2023-03-07T08:57:06.976Z,12.30
2023-03-07T08:59:39.640Z,11.65
2023-03-07T09:02:13.403Z,11.98
2023-03-07T09:04:48.439Z,11.40
2023-03-07T09:07:22.632Z,12.10
2023-03-07T09:09:49.397Z,9.27
2023-03-07T09:12:16.220Z,10.05
2023-03-07T09:14:42.948Z,12.90
2023-03-07T09:17:10.362Z,11.55
2023-03-07T09:19:37.212Z,8.13
2023-03-07T09:22:04.116Z,8.75
2023-03-07T09:24:31.025Z,10.45
2023-03-07T09:26:57.716Z,9.50
2023-03-07T09:29:24.992Z,8.68
2023-03-07T09:31:52.017Z,10.82
2023-03-07T09:34:19.181Z,9.20
2023-03-07T09:36:46.095Z,8.07
2023-03-07T09:39:16.691Z,9.98
2023-03-07T09:41:58.033Z,8.07
2023-03-07T09:44:30.733Z,8.73
2023-03-07T09:47:24.598Z,8.27
2023-03-07T09:49:51.946Z,10.35
2023-03-07T09:52:29.601Z,8.65
2023-03-07T09:55:00.282Z,8.55
2023-03-07T09:57:36.787Z,6.75
2023-03-07T10:00:23.872Z,5.78
2023-03-07T10:02:55.954Z,7.22
2023-03-07T10:05:22.629Z,6.78
2023-03-07T10:07:49.369Z,8.35
2023-03-07T10:10:22.952Z,7.00
2023-03-07T10:13:26.897Z,8.15
2023-03-07T10:16:21.499Z,8.50
2023-03-07T10:18:52.020Z,7.28
2023-03-07T10:21:52.397Z,7.50
2023-03-07T10:24:24.128Z,6.07
2023-03-07T10:26:50.740Z,9.77
2023-03-07T10:29:19.443Z,15.57
2023-03-07T10:31:49.234Z,7.80
2023-03-07T10:34:27.883Z,8.75
2023-03-07T10:37:08.788Z,12.82
2023-03-07T10:39:53.403Z,12.35
2023-03-07T10:42:25.001Z,12.65
2023-03-07T10:44:52.051Z,7.10
2023-03-07T10:47:24.528Z,11.88
2023-03-07T10:49:53.759Z,7.28
2023-03-07T10:52:41.354Z,9.65
2023-03-07T10:55:30.904Z,10.13
2023-03-07T10:58:26.073Z,8.30
2023-03-07T11:01:10.851Z,8.85
2023-03-07T11:03:59.551Z,9.00
2023-03-07T11:06:32.351Z,9.60
2023-03-07T11:09:17.357Z,9.35
2023-03-07T11:11:49.634Z,6.47
2023-03-07T11:14:18.729Z,10.33
2023-03-07T11:16:50.886Z,8.82
2023-03-07T11:19:34.236Z,8.60
2023-03-07T11:24:38.351Z,9.20
2023-03-07T11:27:05.905Z,7.93
2023-03-07T11:29:34.954Z,7.88
2023-03-07T11:32:14.296Z,9.13
2023-03-07T11:34:49.337Z,8.63
2023-03-07T11:37:29.153Z,10.60
2023-03-07T11:40:19.644Z,10.88
2023-03-07T11:43:22.143Z,8.30
2023-03-07T11:45:55.267Z,9.77
2023-03-07T11:51:04.875Z,8.70
2023-03-07T11:53:40.660Z,12.05
2023-03-07T11:56:27.399Z,9.93
2023-03-07T11:59:31.657Z,8.27
2023-03-07T12:02:03.358Z,7.90
2023-03-07T12:05:05.392Z,8.43
2023-03-07T12:07:54.535Z,11.07
2023-03-07T12:10:38.439Z,9.40
2023-03-07T12:13:47.767Z,7.60
2023-03-07T12:16:14.614Z,7.00
2023-03-07T12:19:00.777Z,7.50
2023-03-07T12:21:57.031Z,7.70
2023-03-07T12:24:38.984Z,7.18
2023-03-07T12:27:25.620Z,9.50
2023-03-07T12:30:27.850Z,7.65
2023-03-07T12:32:54.652Z,8.38
2023-03-07T12:35:21.669Z,11.60
2023-03-07T12:38:10.193Z,8.90
2023-03-07T12:40:48.057Z,7.50
2023-03-07T12:43:22.401Z,9.40
2023-03-07T12:45:52.510Z,9.95
2023-03-07T12:48:25.493Z,6.68
2023-03-07T12:51:33.312Z,9.25
2023-03-07T12:54:40.562Z,7.35
2023-03-07T12:57:11.671Z,8.25
2023-03-07T12:59:43.359Z,7.22
2023-03-07T13:02:29.383Z,6.70
2023-03-07T13:04:57.791Z,7.60
2023-03-07T13:07:26.386Z,10.13
2023-03-07T13:09:54.399Z,8.95
2023-03-07T13:12:23.865Z,7.32
2023-03-07T13:14:56.382Z,6.82
2023-03-07T13:17:35.215Z,8.35
2023-03-07T13:20:15.218Z,8.75
2023-03-07T13:22:50.059Z,7.85
2023-03-07T13:25:23.032Z,8.25
2023-03-07T13:27:54.247Z,9.07
2023-03-07T13:30:26.893Z,9.85
2023-03-07T13:32:56.765Z,7.63
2023-03-07T13:35:34.037Z,7.03
2023-03-07T13:38:19.518Z,8.05
2023-03-07T13:40:46.942Z,6.40
2023-03-07T13:43:23.785Z,6.95
2023-03-07T13:45:58.175Z,9.60
2023-03-07T13:48:30.963Z,10.32
2023-03-07T13:51:09.515Z,7.85
2023-03-07T13:53:50.978Z,7.13
2023-03-07T13:56:24.980Z,6.43
2023-03-07T13:59:02.155Z,5.43
2023-03-07T14:01:35.787Z,7.60
2023-03-07T14:04:39.018Z,4.63
2023-03-07T14:07:15.391Z,5.65
2023-03-07T14:09:56.173Z,5.70
2023-03-07T14:13:05.344Z,6.22
2023-03-07T14:15:48.080Z,7.70
2023-03-07T14:18:45.980Z,5.07
2023-03-07T14:21:48.578Z,9.65
2023-03-07T14:24:33.659Z,6.97
2023-03-07T14:27:04.653Z,4.70
2023-03-07T14:29:31.646Z,5.53
2023-03-07T14:31:59.708Z,7.78
2023-03-07T14:34:33.852Z,10.77
2023-03-07T14:37:13.005Z,9.45
2023-03-07T14:39:39.671Z,9.05
2023-03-07T14:42:18.752Z,7.93
2023-03-07T14:44:55.399Z,8.45
2023-03-07T14:47:35.321Z,9.68
2023-03-07T14:50:14.301Z,5.47
2023-03-07T14:52:41.426Z,6.38
2023-03-07T14:55:19.436Z,6.28
2023-03-07T14:57:53.360Z,5.07
2023-03-07T15:00:20.532Z,5.22
2023-03-07T15:03:00.125Z,5.88
2023-03-07T15:05:33.925Z,5.05
2023-03-07T15:08:02.725Z,5.43
2023-03-07T15:10:37.363Z,5.38
2023-03-07T15:13:06.112Z,6.18
2023-03-07T15:15:37.770Z,5.57
2023-03-07T15:18:07.637Z,4.53
2023-03-07T15:20:34.508Z,5.90
2023-03-07T15:23:07.994Z,5.78
2023-03-07T15:25:39.022Z,5.97
2023-03-07T15:28:17.521Z,7.75
2023-03-07T15:30:53.638Z,5.47
2023-03-07T15:33:20.587Z,6.70
2023-03-07T15:36:13.818Z,5.20
2023-03-07T15:38:50.035Z,5.30
2023-03-07T15:41:34.460Z,5.97
2023-03-07T15:44:17.845Z,4.95
2023-03-07T15:49:54.891Z,5.85
2023-03-07T15:52:29.030Z,6.53
2023-03-07T15:55:00.575Z,7.25
2023-03-07T15:57:34.042Z,5.97
2023-03-07T16:00:21.647Z,6.90
2023-03-07T16:02:52.133Z,4.60
2023-03-07T16:05:23.187Z,5.43
2023-03-07T16:07:54.824Z,6.32
2023-03-07T16:10:24.153Z,5.72
2023-03-07T16:12:50.942Z,4.45
2023-03-07T16:15:19.179Z,5.65
2023-03-07T16:17:46.277Z,4.65
2023-03-07T16:20:15.304Z,7.70
2023-03-07T16:22:44.243Z,8.82
2023-03-07T16:25:14.076Z,8.73
2023-03-07T16:27:41.211Z,5.03
2023-03-07T16:30:19.301Z,6.45
2023-03-07T16:32:47.304Z,6.97
2023-03-07T16:35:21.801Z,6.80
2023-03-07T16:37:49.737Z,10.23
2023-03-07T16:40:17.241Z,5.55
2023-03-07T16:42:47.339Z,6.28
2023-03-07T16:45:26.292Z,9.43
2023-03-07T16:47:57.856Z,11.05
2023-03-07T16:50:27.816Z,8.77
2023-03-07T16:52:54.704Z,6.05
2023-03-07T16:55:21.597Z,9.13
2023-03-07T16:57:53.028Z,11.18
2023-03-07T17:00:22.008Z,10.45
2023-03-07T17:02:49.221Z,7.43
2023-03-07T17:05:21.440Z,10.15
2023-03-07T17:07:48.331Z,8.73
2023-03-07T17:10:15.308Z,6.55
2023-03-07T17:12:42.533Z,6.88
2023-03-07T17:15:17.614Z,9.73
2023-03-07T17:17:44.772Z,11.32
2023-03-07T17:20:17.101Z,9.43
2023-03-07T17:22:44.073Z,12.77
2023-03-07T17:25:10.973Z,7.68
2023-03-07T17:27:41.907Z,8.30
2023-03-07T17:30:19.416Z,9.02
2023-03-07T17:32:46.820Z,7.32
2023-03-07T17:35:15.077Z,9.75
2023-03-07T17:37:43.254Z,9.18
2023-03-07T17:40:13.758Z,8.55
2023-03-07T17:42:44.231Z,9.93
2023-03-07T17:45:12.685Z,11.40
2023-03-07T17:47:40.261Z,11.00
2023-03-07T17:50:07.987Z,8.30
2023-03-07T17:52:35.192Z,10.50
2023-03-07T17:55:02.012Z,9.55
2023-03-07T17:57:29.572Z,8.93
2023-03-07T17:59:56.483Z,8.18
2023-03-07T18:02:23.537Z,11.52
2023-03-07T18:04:51.677Z,9.60
2023-03-07T18:07:19.918Z,9.02
2023-03-07T18:09:48.466Z,9.43
2023-03-07T18:12:19.971Z,9.15
2023-03-07T18:14:46.786Z,6.75
2023-03-07T18:17:13.627Z,9.15
2023-03-07T18:19:40.375Z,7.47
2023-03-07T18:22:07.064Z,7.38
2023-03-07T18:24:33.846Z,11.55
2023-03-07T18:27:01.214Z,10.10
2023-03-07T18:29:29.038Z,9.60
2023-03-07T18:31:55.958Z,7.78
2023-03-07T18:34:23.090Z,8.57
2023-03-07T18:36:51.854Z,11.75
2023-03-07T18:39:20.321Z,9.25
2023-03-07T18:41:48.310Z,9.88
2023-03-07T18:44:15.105Z,12.35
2023-03-07T18:46:42.203Z,10.52
2023-03-07T18:49:10.187Z,8.25
2023-03-07T18:51:38.276Z,10.60
2023-03-07T18:54:04.987Z,15.75
2023-03-07T18:56:31.769Z,10.02
2023-03-07T18:58:59.206Z,8.43
2023-03-07T19:01:30.771Z,12.40
2023-03-07T19:04:02.031Z,11.68
2023-03-07T19:06:41.855Z,9.52
2023-03-07T19:09:16.186Z,11.27
2023-03-07T19:11:43.032Z,11.07
2023-03-07T19:14:09.758Z,9.93
2023-03-07T19:16:36.634Z,11.15
2023-03-07T19:19:03.858Z,9.52
2023-03-07T19:21:31.274Z,8.95
2023-03-07T19:24:01.691Z,10.50
2023-03-07T19:26:28.491Z,12.73
2023-03-07T19:28:56.233Z,9.82
2023-03-07T19:31:25.706Z,10.25
2023-03-07T19:33:52.475Z,7.95
2023-03-07T19:36:26.123Z,8.10
2023-03-07T19:38:59.073Z,7.65
2023-03-07T19:41:27.292Z,7.45
2023-03-07T19:43:55.606Z,7.95
2023-03-07T19:46:22.672Z,9.18
2023-03-07T19:48:49.498Z,6.43
2023-03-07T19:51:18.236Z,8.55
2023-03-07T19:53:45.339Z,7.82
2023-03-07T19:56:15.173Z,8.45
2023-03-07T19:58:41.891Z,8.13
2023-03-07T20:01:14.156Z,6.90
2023-03-07T20:03:41.100Z,9.03
2023-03-07T20:06:08.465Z,5.97
2023-03-07T20:08:35.500Z,7.93
2023-03-07T20:11:19.865Z,7.57
2023-03-07T20:13:47.824Z,6.30
2023-03-07T20:16:16.340Z,7.10
2023-03-07T20:18:43.205Z,5.75
2023-03-07T20:21:12.397Z,5.22
2023-03-07T20:23:39.558Z,8.20
2023-03-07T20:26:11.937Z,5.90
2023-03-07T20:28:39.017Z,6.25
2023-03-07T20:31:09.014Z,6.70
2023-03-07T20:33:36.683Z,5.63
2023-03-07T20:36:05.956Z,6.57
2023-03-07T20:38:33.505Z,5.80
2023-03-07T20:41:08.380Z,5.45
2023-03-07T20:43:35.296Z,5.60
2023-03-07T20:46:06.425Z,4.70
2023-03-07T20:48:33.712Z,5.18
2023-03-07T20:51:07.951Z,4.57
2023-03-07T20:53:34.806Z,5.45
2023-03-07T20:56:02.999Z,6.32
2023-03-07T20:58:30.204Z,4.72
2023-03-07T21:00:57.731Z,5.10
2023-03-07T21:03:24.711Z,4.85
2023-03-07T21:05:55.352Z,7.65
2023-03-07T21:08:22.232Z,7.03
2023-03-07T21:11:01.299Z,5.00
2023-03-07T21:13:28.304Z,5.90
2023-03-07T21:15:56.942Z,4.22
2023-03-07T21:18:23.967Z,6.70
2023-03-07T21:20:50.828Z,3.95
2023-03-07T21:23:17.746Z,4.82
2023-03-07T21:25:45.353Z,6.88
2023-03-07T21:28:12.347Z,3.97
2023-03-07T21:30:39.377Z,5.18
2023-03-07T21:33:06.134Z,4.63
2023-03-07T21:35:39.765Z,5.60
2023-03-07T21:38:06.726Z,4.78
2023-03-07T21:40:33.640Z,5.65
2023-03-07T21:43:00.428Z,5.25
2023-03-07T21:45:27.323Z,6.55
2023-03-07T21:47:55.211Z,5.40
2023-03-07T21:50:22.026Z,7.57
2023-03-07T21:52:48.984Z,6.25
2023-03-07T21:55:20.703Z,4.82
2023-03-07T21:57:47.565Z,4.68
2023-03-07T22:00:16.928Z,7.43
2023-03-07T22:02:44.554Z,5.38
2023-03-07T22:05:12.253Z,5.78
2023-03-07T22:07:39.340Z,6.50
2023-03-07T22:10:07.400Z,6.82
2023-03-07T22:12:34.300Z,4.35
2023-03-07T22:15:00.983Z,8.10
2023-03-07T22:17:27.945Z,4.35
2023-03-07T22:19:54.578Z,4.90
2023-03-07T22:22:21.337Z,5.53
2023-03-07T22:24:52.156Z,5.85
2023-03-07T22:27:19.186Z,5.70
2023-03-07T22:29:45.899Z,8.23
2023-03-07T22:32:12.650Z,5.85
2023-03-07T22:34:39.350Z,7.70
2023-03-07T22:37:06.198Z,6.90
2023-03-07T22:39:32.959Z,6.05
2023-03-07T22:41:59.723Z,7.10
2023-03-07T22:44:26.379Z,6.28
2023-03-07T22:46:53.688Z,5.63
2023-03-07T22:49:20.364Z,8.98
2023-03-07T22:51:47.172Z,7.03
2023-03-07T22:54:13.875Z,9.77
2023-03-07T22:56:40.575Z,8.48
2023-03-07T22:59:07.227Z,8.25
2023-03-07T23:01:33.961Z,6.22
2023-03-07T23:04:00.790Z,8.40
2023-03-07T23:06:29.726Z,9.10
2023-03-07T23:08:57.321Z,9.50
2023-03-07T23:11:25.142Z,9.20
2023-03-07T23:13:52.331Z,6.97
2023-03-07T23:16:21.658Z,12.18
2023-03-07T23:18:51.694Z,9.50
2023-03-07T23:21:20.409Z,8.05
2023-03-07T23:23:47.517Z,8.18
2023-03-07T23:26:20.206Z,7.40
2023-03-07T23:28:46.965Z,8.88
2023-03-07T23:31:21.910Z,11.23
2023-03-07T23:33:49.292Z,8.52
2023-03-07T23:36:17.373Z,12.88
2023-03-07T23:38:46.260Z,11.95
2023-03-07T23:41:13.730Z,8.98
2023-03-07T23:43:40.396Z,10.40
2023-03-07T23:46:07.247Z,10.48
2023-03-07T23:48:33.936Z,11.10
2023-03-07T23:51:00.897Z,11.30
2023-03-07T23:53:27.564Z,12.00
2023-03-07T23:55:54.262Z,9.15
2023-03-07T23:58:21.062Z,9.93
